sensor_id;sensor_type;location;lat;lon;timestamp;temperature;humidity
5138;DHT22;53959;53.626;11.410;2022-12-18T00:01:57;-5.70;99.90
5138;DHT22;53959;53.626;11.410;2022-12-18T00:04:25;-5.60;99.90
5138;DHT22;53959;53.626;11.410;2022-12-18T00:06:51;-5.60;99.90
5138;DHT22;53959;53.626;11.410;2022-12-18T00:09:17;-5.70;99.90
5138;DHT22;53959;53.626;11.410;2022-12-18T00:11:42;-5.60;99.90
5138;DHT22;53959;53.626;11.410;2022-12-18T00:14:10;-5.70;99.90
5138;DHT22;53959;53.626;11.410;2022-12-18T00:16:36;-5.80;99.90
5138;DHT22;53959;53.626;11.410;2022-12-18T00:19:02;-5.90;99.90
5138;DHT22;53959;53.626;11.410;2022-12-18T00:21:29;-5.90;99.90
5138;DHT22;53959;53.626;11.410;2022-12-18T00:23:55;-5.80;99.90
5138;DHT22;53959;53.626;11.410;2022-12-18T00:26:23;-5.70;99.90
5138;DHT22;53959;53.626;11.410;2022-12-18T00:28:50;-5.80;99.90
5138;DHT22;53959;53.626;11.410;2022-12-18T00:31:21;-5.90;99.90
5138;DHT22;53959;53.626;11.410;2022-12-18T00:33:47;-5.80;99.90
5138;DHT22;53959;53.626;11.410;2022-12-18T00:36:15;-5.90;99.90
5138;DHT22;53959;53.626;11.410;2022-12-18T00:38:41;-5.90;99.90
5138;DHT22;53959;53.626;11.410;2022-12-18T00:41:08;-5.80;99.90
5138;DHT22;53959;53.626;11.410;2022-12-18T00:43:35;-5.80;99.90
5138;DHT22;53959;53.626;11.410;2022-12-18T00:46:00;-5.70;99.90
5138;DHT22;53959;53.626;11.410;2022-12-18T00:48:26;-5.90;99.90
5138;DHT22;53959;53.626;11.410;2022-12-18T00:50:51;-5.90;99.90
5138;DHT22;53959;53.626;11.410;2022-12-18T00:53:17;-5.80;99.90
5138;DHT22;53959;53.626;11.410;2022-12-18T00:55:43;-6.00;99.90
5138;DHT22;53959;53.626;11.410;2022-12-18T00:58:09;-5.90;99.90
5138;DHT22;53959;53.626;11.410;2022-12-18T01:00:36;-5.80;99.90
5138;DHT22;53959;53.626;11.410;2022-12-18T01:03:02;-5.90;99.90
5138;DHT22;53959;53.626;11.410;2022-12-18T01:05:27;-6.00;99.90
5138;DHT22;53959;53.626;11.410;2022-12-18T01:07:53;-6.00;99.90
5138;DHT22;53959;53.626;11.410;2022-12-18T01:10:18;-5.90;99.90
5138;DHT22;53959;53.626;11.410;2022-12-18T01:12:44;-6.00;99.90
5138;DHT22;53959;53.626;11.410;2022-12-18T01:15:11;-5.90;99.90
5138;DHT22;53959;53.626;11.410;2022-12-18T01:17:37;-5.90;99.90
5138;DHT22;53959;53.626;11.410;2022-12-18T01:20:03;-5.90;99.90
5138;DHT22;53959;53.626;11.410;2022-12-18T01:22:29;-6.00;99.90
5138;DHT22;53959;53.626;11.410;2022-12-18T01:24:54;-5.90;99.90
5138;DHT22;53959;53.626;11.410;2022-12-18T01:27:20;-5.90;99.90
5138;DHT22;53959;53.626;11.410;2022-12-18T01:29:45;-6.00;99.90
5138;DHT22;53959;53.626;11.410;2022-12-18T01:32:11;-5.90;99.90
5138;DHT22;53959;53.626;11.410;2022-12-18T01:34:37;-5.90;99.90
5138;DHT22;53959;53.626;11.410;2022-12-18T01:37:05;-6.00;99.90
5138;DHT22;53959;53.626;11.410;2022-12-18T01:39:31;-5.90;99.90
5138;DHT22;53959;53.626;11.410;2022-12-18T01:41:59;-5.80;99.90
5138;DHT22;53959;53.626;11.410;2022-12-18T01:47:20;-5.80;99.90
5138;DHT22;53959;53.626;11.410;2022-12-18T01:49:46;-5.90;99.90
5138;DHT22;53959;53.626;11.410;2022-12-18T01:52:13;-5.80;99.90
5138;DHT22;53959;53.626;11.410;2022-12-18T01:54:39;-5.90;99.90
5138;DHT22;53959;53.626;11.410;2022-12-18T01:57:04;-6.00;99.90
5138;DHT22;53959;53.626;11.410;2022-12-18T01:59:31;-6.10;99.90
5138;DHT22;53959;53.626;11.410;2022-12-18T02:01:58;-6.10;99.90
5138;DHT22;53959;53.626;11.410;2022-12-18T02:04:27;-6.20;99.90
5138;DHT22;53959;53.626;11.410;2022-12-18T02:09:46;-6.20;99.90
5138;DHT22;53959;53.626;11.410;2022-12-18T02:12:19;-6.30;99.90
5138;DHT22;53959;53.626;11.410;2022-12-18T02:15:19;-6.20;99.90
5138;DHT22;53959;53.626;11.410;2022-12-18T02:17:58;-6.30;99.90
5138;DHT22;53959;53.626;11.410;2022-12-18T02:20:35;-6.20;99.90
5138;DHT22;53959;53.626;11.410;2022-12-18T02:23:26;-6.30;99.90
5138;DHT22;53959;53.626;11.410;2022-12-18T02:26:20;-6.40;99.90
5138;DHT22;53959;53.626;11.410;2022-12-18T02:28:56;-6.40;99.90
5138;DHT22;53959;53.626;11.410;2022-12-18T02:31:27;-6.40;99.90
5138;DHT22;53959;53.626;11.410;2022-12-18T02:33:55;-6.40;99.90
5138;DHT22;53959;53.626;11.410;2022-12-18T02:36:23;-6.40;99.90
5138;DHT22;53959;53.626;11.410;2022-12-18T02:38:50;-6.40;99.90
5138;DHT22;53959;53.626;11.410;2022-12-18T02:41:16;-6.30;99.90
5138;DHT22;53959;53.626;11.410;2022-12-18T02:43:47;-6.30;99.90
5138;DHT22;53959;53.626;11.410;2022-12-18T02:46:29;-6.20;99.90
5138;DHT22;53959;53.626;11.410;2022-12-18T02:57:32;-6.20;99.90
5138;DHT22;53959;53.626;11.410;2022-12-18T03:03:12;-6.30;99.90
5138;DHT22;53959;53.626;11.410;2022-12-18T03:06:05;-6.40;99.90
5138;DHT22;53959;53.626;11.410;2022-12-18T03:08:38;-6.40;99.90
5138;DHT22;53959;53.626;11.410;2022-12-18T03:11:12;-6.40;99.90
5138;DHT22;53959;53.626;11.410;2022-12-18T03:13:46;-6.50;99.90
5138;DHT22;53959;53.626;11.410;2022-12-18T03:16:22;-6.40;99.90
5138;DHT22;53959;53.626;11.410;2022-12-18T03:18:54;-6.50;99.90
5138;DHT22;53959;53.626;11.410;2022-12-18T03:21:23;-6.60;99.90
5138;DHT22;53959;53.626;11.410;2022-12-18T03:23:52;-6.50;99.90
5138;DHT22;53959;53.626;11.410;2022-12-18T03:26:23;-6.50;99.90
5138;DHT22;53959;53.626;11.410;2022-12-18T03:28:57;-6.70;99.90
5138;DHT22;53959;53.626;11.410;2022-12-18T03:31:26;-6.60;99.90
5138;DHT22;53959;53.626;11.410;2022-12-18T03:33:56;-6.50;99.90
5138;DHT22;53959;53.626;11.410;2022-12-18T03:36:23;-6.70;99.90
5138;DHT22;53959;53.626;11.410;2022-12-18T03:38:49;-6.60;99.90
5138;DHT22;53959;53.626;11.410;2022-12-18T03:41:43;-6.70;99.90
5138;DHT22;53959;53.626;11.410;2022-12-18T03:44:41;-6.80;99.90
5138;DHT22;53959;53.626;11.410;2022-12-18T03:50:12;-6.90;99.90
5138;DHT22;53959;53.626;11.410;2022-12-18T03:52:50;-6.90;99.90
5138;DHT22;53959;53.626;11.410;2022-12-18T03:55:18;-6.90;99.90
5138;DHT22;53959;53.626;11.410;2022-12-18T03:57:46;-6.90;99.90
5138;DHT22;53959;53.626;11.410;2022-12-18T04:00:14;-6.80;99.90
5138;DHT22;53959;53.626;11.410;2022-12-18T04:02:45;-6.90;99.90
5138;DHT22;53959;53.626;11.410;2022-12-18T04:05:13;-6.90;99.90
5138;DHT22;53959;53.626;11.410;2022-12-18T04:07:40;-7.00;99.90
5138;DHT22;53959;53.626;11.410;2022-12-18T04:10:07;-6.90;99.90
5138;DHT22;53959;53.626;11.410;2022-12-18T04:12:33;-7.00;99.90
5138;DHT22;53959;53.626;11.410;2022-12-18T04:14:59;-6.90;99.90
5138;DHT22;53959;53.626;11.410;2022-12-18T04:17:24;-7.00;99.90
5138;DHT22;53959;53.626;11.410;2022-12-18T04:19:50;-7.00;99.90
5138;DHT22;53959;53.626;11.410;2022-12-18T04:22:15;-7.00;99.90
5138;DHT22;53959;53.626;11.410;2022-12-18T04:24:41;-6.90;99.90
5138;DHT22;53959;53.626;11.410;2022-12-18T04:27:07;-6.90;99.90
5138;DHT22;53959;53.626;11.410;2022-12-18T04:29:32;-6.90;99.90
5138;DHT22;53959;53.626;11.410;2022-12-18T04:31:58;-7.00;99.90
5138;DHT22;53959;53.626;11.410;2022-12-18T04:34:23;-6.90;99.90
5138;DHT22;53959;53.626;11.410;2022-12-18T04:36:49;-7.00;99.90
5138;DHT22;53959;53.626;11.410;2022-12-18T04:39:18;-6.90;99.90
5138;DHT22;53959;53.626;11.410;2022-12-18T04:41:43;-7.00;99.90
5138;DHT22;53959;53.626;11.410;2022-12-18T04:44:09;-7.00;99.90
5138;DHT22;53959;53.626;11.410;2022-12-18T04:46:34;-7.00;99.90
5138;DHT22;53959;53.626;11.410;2022-12-18T04:49:00;-7.00;99.90
5138;DHT22;53959;53.626;11.410;2022-12-18T04:51:25;-7.00;99.90
5138;DHT22;53959;53.626;11.410;2022-12-18T04:53:51;-7.00;99.90
5138;DHT22;53959;53.626;11.410;2022-12-18T04:56:16;-7.00;99.90
5138;DHT22;53959;53.626;11.410;2022-12-18T04:58:43;-6.90;99.90
5138;DHT22;53959;53.626;11.410;2022-12-18T05:01:12;-7.00;99.90
5138;DHT22;53959;53.626;11.410;2022-12-18T05:03:38;-7.00;99.90
5138;DHT22;53959;53.626;11.410;2022-12-18T05:06:05;-7.10;99.90
5138;DHT22;53959;53.626;11.410;2022-12-18T05:08:31;-7.10;99.90
5138;DHT22;53959;53.626;11.410;2022-12-18T05:11:22;-7.20;99.90
5138;DHT22;53959;53.626;11.410;2022-12-18T05:13:47;-7.20;99.90
5138;DHT22;53959;53.626;11.410;2022-12-18T05:16:13;-7.30;99.90
5138;DHT22;53959;53.626;11.410;2022-12-18T05:18:40;-7.20;99.90
5138;DHT22;53959;53.626;11.410;2022-12-18T05:21:06;-7.20;99.90
5138;DHT22;53959;53.626;11.410;2022-12-18T05:23:34;-7.20;99.90
5138;DHT22;53959;53.626;11.410;2022-12-18T05:26:02;-7.20;99.90
5138;DHT22;53959;53.626;11.410;2022-12-18T05:28:30;-7.40;99.90
5138;DHT22;53959;53.626;11.410;2022-12-18T05:30:58;-7.30;99.90
5138;DHT22;53959;53.626;11.410;2022-12-18T05:33:26;-7.30;99.90
5138;DHT22;53959;53.626;11.410;2022-12-18T05:35:57;-7.40;99.90
5138;DHT22;53959;53.626;11.410;2022-12-18T05:38:24;-7.30;99.90
5138;DHT22;53959;53.626;11.410;2022-12-18T05:40:51;-7.40;99.90
5138;DHT22;53959;53.626;11.410;2022-12-18T05:43:17;-7.40;99.90
5138;DHT22;53959;53.626;11.410;2022-12-18T05:45:43;-7.30;99.90
5138;DHT22;53959;53.626;11.410;2022-12-18T05:48:12;-7.30;99.90
5138;DHT22;53959;53.626;11.410;2022-12-18T05:50:39;-7.30;99.90
5138;DHT22;53959;53.626;11.410;2022-12-18T05:53:05;-7.30;99.90
5138;DHT22;53959;53.626;11.410;2022-12-18T05:55:38;-7.20;99.90
5138;DHT22;53959;53.626;11.410;2022-12-18T05:58:05;-7.20;99.90
5138;DHT22;53959;53.626;11.410;2022-12-18T06:00:33;-7.30;99.90
5138;DHT22;53959;53.626;11.410;2022-12-18T06:03:00;-7.20;99.90
5138;DHT22;53959;53.626;11.410;2022-12-18T06:05:25;-7.20;99.90
5138;DHT22;53959;53.626;11.410;2022-12-18T06:07:51;-7.10;99.90
5138;DHT22;53959;53.626;11.410;2022-12-18T06:10:17;-7.00;99.90
5138;DHT22;53959;53.626;11.410;2022-12-18T06:12:42;-7.10;99.90
5138;DHT22;53959;53.626;11.410;2022-12-18T06:15:08;-7.10;99.90
5138;DHT22;53959;53.626;11.410;2022-12-18T06:17:34;-7.00;99.90
5138;DHT22;53959;53.626;11.410;2022-12-18T06:20:00;-7.10;99.90
5138;DHT22;53959;53.626;11.410;2022-12-18T06:22:26;-7.10;99.90
5138;DHT22;53959;53.626;11.410;2022-12-18T06:24:52;-7.10;99.90
5138;DHT22;53959;53.626;11.410;2022-12-18T06:27:18;-7.00;99.90
5138;DHT22;53959;53.626;11.410;2022-12-18T06:29:43;-7.00;99.90
5138;DHT22;53959;53.626;11.410;2022-12-18T06:32:09;-7.10;99.90
5138;DHT22;53959;53.626;11.410;2022-12-18T06:34:37;-7.00;99.90
5138;DHT22;53959;53.626;11.410;2022-12-18T06:37:02;-7.10;99.90
5138;DHT22;53959;53.626;11.410;2022-12-18T06:39:28;-7.00;99.90
5138;DHT22;53959;53.626;11.410;2022-12-18T06:41:53;-7.10;99.90
5138;DHT22;53959;53.626;11.410;2022-12-18T06:44:19;-7.10;99.90
5138;DHT22;53959;53.626;11.410;2022-12-18T06:46:45;-7.10;99.90
5138;DHT22;53959;53.626;11.410;2022-12-18T06:49:11;-7.10;99.90
5138;DHT22;53959;53.626;11.410;2022-12-18T06:51:37;-7.00;99.90
5138;DHT22;53959;53.626;11.410;2022-12-18T06:54:02;-7.00;99.90
5138;DHT22;53959;53.626;11.410;2022-12-18T06:56:28;-7.10;99.90
5138;DHT22;53959;53.626;11.410;2022-12-18T06:58:54;-7.20;99.90
5138;DHT22;53959;53.626;11.410;2022-12-18T07:01:20;-7.10;99.90
5138;DHT22;53959;53.626;11.410;2022-12-18T07:03:46;-7.10;99.90
5138;DHT22;53959;53.626;11.410;2022-12-18T07:06:16;-7.20;99.90
5138;DHT22;53959;53.626;11.410;2022-12-18T07:08:43;-7.20;99.90
5138;DHT22;53959;53.626;11.410;2022-12-18T07:11:09;-7.20;99.90
5138;DHT22;53959;53.626;11.410;2022-12-18T07:13:34;-7.20;99.90
5138;DHT22;53959;53.626;11.410;2022-12-18T07:18:32;-7.30;99.90
5138;DHT22;53959;53.626;11.410;2022-12-18T07:20:57;-7.20;99.90
5138;DHT22;53959;53.626;11.410;2022-12-18T07:23:23;-7.30;99.90
5138;DHT22;53959;53.626;11.410;2022-12-18T07:25:48;-7.40;99.90
5138;DHT22;53959;53.626;11.410;2022-12-18T07:28:14;-7.40;99.90
5138;DHT22;53959;53.626;11.410;2022-12-18T07:30:40;-7.40;99.90
5138;DHT22;53959;53.626;11.410;2022-12-18T07:33:05;-7.40;99.90
5138;DHT22;53959;53.626;11.410;2022-12-18T07:35:32;-7.30;99.90
5138;DHT22;53959;53.626;11.410;2022-12-18T07:38:01;-7.40;99.90
5138;DHT22;53959;53.626;11.410;2022-12-18T07:40:26;-7.40;99.90
5138;DHT22;53959;53.626;11.410;2022-12-18T07:42:52;-7.50;99.90
5138;DHT22;53959;53.626;11.410;2022-12-18T07:45:17;-7.40;99.90
5138;DHT22;53959;53.626;11.410;2022-12-18T07:47:43;-7.40;99.90
5138;DHT22;53959;53.626;11.410;2022-12-18T07:50:09;-7.40;99.90
5138;DHT22;53959;53.626;11.410;2022-12-18T07:52:34;-7.50;99.90
5138;DHT22;53959;53.626;11.410;2022-12-18T07:55:00;-7.60;99.90
5138;DHT22;53959;53.626;11.410;2022-12-18T07:57:25;-7.50;99.90
5138;DHT22;53959;53.626;11.410;2022-12-18T07:59:51;-7.50;99.90
5138;DHT22;53959;53.626;11.410;2022-12-18T08:02:16;-7.40;99.90
5138;DHT22;53959;53.626;11.410;2022-12-18T08:04:42;-7.40;99.90
5138;DHT22;53959;53.626;11.410;2022-12-18T08:07:07;-7.50;99.90
5138;DHT22;53959;53.626;11.410;2022-12-18T08:09:33;-7.40;99.90
5138;DHT22;53959;53.626;11.410;2022-12-18T08:11:58;-7.40;99.90
5138;DHT22;53959;53.626;11.410;2022-12-18T08:14:24;-7.40;99.90
5138;DHT22;53959;53.626;11.410;2022-12-18T08:16:50;-7.40;99.90
5138;DHT22;53959;53.626;11.410;2022-12-18T08:19:15;-7.40;99.90
5138;DHT22;53959;53.626;11.410;2022-12-18T08:21:41;-7.30;99.90
5138;DHT22;53959;53.626;11.410;2022-12-18T08:24:06;-7.30;99.90
5138;DHT22;53959;53.626;11.410;2022-12-18T08:26:32;-7.40;99.90
5138;DHT22;53959;53.626;11.410;2022-12-18T08:28:59;-7.50;99.90
5138;DHT22;53959;53.626;11.410;2022-12-18T08:31:26;-7.50;99.90
5138;DHT22;53959;53.626;11.410;2022-12-18T08:33:53;-7.40;99.90
5138;DHT22;53959;53.626;11.410;2022-12-18T08:36:19;-7.30;99.90
5138;DHT22;53959;53.626;11.410;2022-12-18T08:38:46;-7.30;99.90
5138;DHT22;53959;53.626;11.410;2022-12-18T08:41:14;-7.40;99.90
5138;DHT22;53959;53.626;11.410;2022-12-18T08:43:40;-7.30;99.90
5138;DHT22;53959;53.626;11.410;2022-12-18T08:46:26;-7.30;99.90
5138;DHT22;53959;53.626;11.410;2022-12-18T08:48:53;-7.20;99.90
5138;DHT22;53959;53.626;11.410;2022-12-18T08:51:19;-7.10;99.90
5138;DHT22;53959;53.626;11.410;2022-12-18T08:53:45;-7.10;99.90
5138;DHT22;53959;53.626;11.410;2022-12-18T08:56:12;-7.10;99.90
5138;DHT22;53959;53.626;11.410;2022-12-18T08:58:38;-7.00;99.90
5138;DHT22;53959;53.626;11.410;2022-12-18T09:01:07;-6.90;99.90
5138;DHT22;53959;53.626;11.410;2022-12-18T09:03:37;-6.90;99.90
5138;DHT22;53959;53.626;11.410;2022-12-18T09:06:03;-6.90;99.90
5138;DHT22;53959;53.626;11.410;2022-12-18T09:08:29;-6.60;99.90
5138;DHT22;53959;53.626;11.410;2022-12-18T09:10:54;-6.80;99.90
5138;DHT22;53959;53.626;11.410;2022-12-18T09:13:20;-6.80;99.90
5138;DHT22;53959;53.626;11.410;2022-12-18T09:15:50;-6.70;99.90
5138;DHT22;53959;53.626;11.410;2022-12-18T09:18:18;-6.70;99.90
5138;DHT22;53959;53.626;11.410;2022-12-18T09:20:45;-6.70;99.90
5138;DHT22;53959;53.626;11.410;2022-12-18T09:23:11;-6.60;99.90
5138;DHT22;53959;53.626;11.410;2022-12-18T09:25:37;-6.50;99.90
5138;DHT22;53959;53.626;11.410;2022-12-18T09:30:30;-6.30;99.90
5138;DHT22;53959;53.626;11.410;2022-12-18T09:32:55;-6.20;99.90
5138;DHT22;53959;53.626;11.410;2022-12-18T09:35:21;-6.30;99.90
5138;DHT22;53959;53.626;11.410;2022-12-18T09:37:47;-6.20;99.90
5138;DHT22;53959;53.626;11.410;2022-12-18T09:40:22;-6.20;99.90
5138;DHT22;53959;53.626;11.410;2022-12-18T09:42:54;-6.20;99.90
5138;DHT22;53959;53.626;11.410;2022-12-18T09:45:21;-6.20;99.90
5138;DHT22;53959;53.626;11.410;2022-12-18T09:47:48;-6.10;99.90
5138;DHT22;53959;53.626;11.410;2022-12-18T09:50:35;-6.10;99.90
5138;DHT22;53959;53.626;11.410;2022-12-18T09:53:06;-6.10;99.90
5138;DHT22;53959;53.626;11.410;2022-12-18T09:55:39;-6.00;99.90
5138;DHT22;53959;53.626;11.410;2022-12-18T10:00:31;-5.90;99.90
5138;DHT22;53959;53.626;11.410;2022-12-18T10:03:02;-5.90;99.90
5138;DHT22;53959;53.626;11.410;2022-12-18T10:10:48;-5.80;99.90
5138;DHT22;53959;53.626;11.410;2022-12-18T10:13:31;-5.70;99.90
5138;DHT22;53959;53.626;11.410;2022-12-18T10:27:35;-5.50;99.90
5138;DHT22;53959;53.626;11.410;2022-12-18T10:30:12;-5.50;99.90
5138;DHT22;53959;53.626;11.410;2022-12-18T10:32:38;-5.50;99.90
5138;DHT22;53959;53.626;11.410;2022-12-18T10:35:04;-5.50;99.90
5138;DHT22;53959;53.626;11.410;2022-12-18T10:37:30;-5.40;99.90
5138;DHT22;53959;53.626;11.410;2022-12-18T10:40:15;-5.40;99.90
5138;DHT22;53959;53.626;11.410;2022-12-18T10:42:41;-5.40;99.90
5138;DHT22;53959;53.626;11.410;2022-12-18T10:45:13;-5.30;99.90
5138;DHT22;53959;53.626;11.410;2022-12-18T10:47:43;-5.30;99.90
5138;DHT22;53959;53.626;11.410;2022-12-18T10:50:39;-5.40;99.90
5138;DHT22;53959;53.626;11.410;2022-12-18T10:53:05;-5.40;99.90
5138;DHT22;53959;53.626;11.410;2022-12-18T10:55:35;-5.30;99.90
5138;DHT22;53959;53.626;11.410;2022-12-18T10:58:23;-5.30;99.90
5138;DHT22;53959;53.626;11.410;2022-12-18T11:03:45;-5.30;99.90
5138;DHT22;53959;53.626;11.410;2022-12-18T11:06:12;-5.10;99.90
5138;DHT22;53959;53.626;11.410;2022-12-18T11:08:38;-5.20;99.90
5138;DHT22;53959;53.626;11.410;2022-12-18T11:11:19;-5.20;99.90
5138;DHT22;53959;53.626;11.410;2022-12-18T11:14:02;-5.10;99.90
5138;DHT22;53959;53.626;11.410;2022-12-18T11:16:30;-5.10;99.90
5138;DHT22;53959;53.626;11.410;2022-12-18T11:19:25;-5.00;99.90
5138;DHT22;53959;53.626;11.410;2022-12-18T11:21:51;-4.90;99.90
5138;DHT22;53959;53.626;11.410;2022-12-18T11:26:48;-4.80;99.90
5138;DHT22;53959;53.626;11.410;2022-12-18T11:29:22;-4.80;99.90
5138;DHT22;53959;53.626;11.410;2022-12-18T11:31:48;-4.90;99.90
5138;DHT22;53959;53.626;11.410;2022-12-18T11:36:47;-4.80;99.90
5138;DHT22;53959;53.626;11.410;2022-12-18T11:39:21;-4.80;99.90
5138;DHT22;53959;53.626;11.410;2022-12-18T11:44:54;-4.90;99.90
5138;DHT22;53959;53.626;11.410;2022-12-18T11:47:34;-4.80;99.90
5138;DHT22;53959;53.626;11.410;2022-12-18T11:50:13;-4.70;99.90
5138;DHT22;53959;53.626;11.410;2022-12-18T11:52:40;-4.60;99.90
5138;DHT22;53959;53.626;11.410;2022-12-18T11:55:14;-4.50;99.90
5138;DHT22;53959;53.626;11.410;2022-12-18T12:00:18;-4.70;99.90
5138;DHT22;53959;53.626;11.410;2022-12-18T12:08:08;-4.60;99.90
5138;DHT22;53959;53.626;11.410;2022-12-18T12:18:47;-4.50;99.90
5138;DHT22;53959;53.626;11.410;2022-12-18T12:24:14;-4.60;99.90
5138;DHT22;53959;53.626;11.410;2022-12-18T12:32:50;-4.60;99.90
5138;DHT22;53959;53.626;11.410;2022-12-18T12:35:27;-4.40;99.90
5138;DHT22;53959;53.626;11.410;2022-12-18T12:41:23;-4.30;99.90
5138;DHT22;53959;53.626;11.410;2022-12-18T12:46:10;-4.60;99.90
5138;DHT22;53959;53.626;11.410;2022-12-18T12:48:49;-4.50;99.90
5138;DHT22;53959;53.626;11.410;2022-12-18T12:51:21;-4.50;99.90
5138;DHT22;53959;53.626;11.410;2022-12-18T12:53:48;-4.50;99.90
5138;DHT22;53959;53.626;11.410;2022-12-18T12:56:17;-4.40;99.90
5138;DHT22;53959;53.626;11.410;2022-12-18T12:59:15;-4.30;99.90
5138;DHT22;53959;53.626;11.410;2022-12-18T13:07:35;-4.40;99.90
5138;DHT22;53959;53.626;11.410;2022-12-18T13:13:12;-4.40;99.90
5138;DHT22;53959;53.626;11.410;2022-12-18T13:16:03;-4.40;99.90
5138;DHT22;53959;53.626;11.410;2022-12-18T13:18:29;-4.40;99.90
5138;DHT22;53959;53.626;11.410;2022-12-18T13:25:55;-4.20;99.90
5138;DHT22;53959;53.626;11.410;2022-12-18T13:32:00;-4.20;99.90
5138;DHT22;53959;53.626;11.410;2022-12-18T13:36:41;-4.10;99.90
5138;DHT22;53959;53.626;11.410;2022-12-18T13:41:54;-3.50;99.90
5138;DHT22;53959;53.626;11.410;2022-12-18T13:44:58;-3.60;99.90
5138;DHT22;53959;53.626;11.410;2022-12-18T13:47:37;-3.70;99.90
5138;DHT22;53959;53.626;11.410;2022-12-18T13:50:23;-4.00;99.90
5138;DHT22;53959;53.626;11.410;2022-12-18T13:52:51;-4.00;99.90
5138;DHT22;53959;53.626;11.410;2022-12-18T13:55:19;-4.00;99.90
5138;DHT22;53959;53.626;11.410;2022-12-18T13:57:46;-3.90;99.90
5138;DHT22;53959;53.626;11.410;2022-12-18T14:02:50;-3.90;99.90
5138;DHT22;53959;53.626;11.410;2022-12-18T14:05:26;-3.80;99.90
5138;DHT22;53959;53.626;11.410;2022-12-18T14:07:53;-4.00;99.90
5138;DHT22;53959;53.626;11.410;2022-12-18T14:10:21;-4.00;99.90
5138;DHT22;53959;53.626;11.410;2022-12-18T14:12:48;-4.00;99.90
5138;DHT22;53959;53.626;11.410;2022-12-18T14:18:01;-4.10;99.90
5138;DHT22;53959;53.626;11.410;2022-12-18T14:20:29;-4.00;99.90
5138;DHT22;53959;53.626;11.410;2022-12-18T14:22:56;-4.00;99.90
5138;DHT22;53959;53.626;11.410;2022-12-18T14:25:29;-4.00;99.90
5138;DHT22;53959;53.626;11.410;2022-12-18T14:28:02;-4.00;99.90
5138;DHT22;53959;53.626;11.410;2022-12-18T14:30:36;-4.10;99.90
5138;DHT22;53959;53.626;11.410;2022-12-18T14:33:20;-4.10;99.90
5138;DHT22;53959;53.626;11.410;2022-12-18T14:38:33;-4.20;99.90
5138;DHT22;53959;53.626;11.410;2022-12-18T14:41:19;-4.20;99.90
5138;DHT22;53959;53.626;11.410;2022-12-18T14:43:47;-4.20;99.90
5138;DHT22;53959;53.626;11.410;2022-12-18T14:49:14;-4.30;99.90
5138;DHT22;53959;53.626;11.410;2022-12-18T14:51:51;-4.20;99.90
5138;DHT22;53959;53.626;11.410;2022-12-18T14:54:18;-4.30;99.90
5138;DHT22;53959;53.626;11.410;2022-12-18T14:56:47;-4.20;99.90
5138;DHT22;53959;53.626;11.410;2022-12-18T14:59:15;-4.20;99.90
5138;DHT22;53959;53.626;11.410;2022-12-18T15:01:57;-4.20;99.90
5138;DHT22;53959;53.626;11.410;2022-12-18T15:04:37;-4.20;99.90
5138;DHT22;53959;53.626;11.410;2022-12-18T15:07:17;-4.30;99.90
5138;DHT22;53959;53.626;11.410;2022-12-18T15:13:27;-4.30;99.90
5138;DHT22;53959;53.626;11.410;2022-12-18T15:18:13;-4.30;99.90
5138;DHT22;53959;53.626;11.410;2022-12-18T15:20:53;-4.20;99.90
5138;DHT22;53959;53.626;11.410;2022-12-18T15:23:36;-4.40;99.90
5138;DHT22;53959;53.626;11.410;2022-12-18T15:26:05;-4.30;99.90
5138;DHT22;53959;53.626;11.410;2022-12-18T15:33:43;-4.40;99.90
5138;DHT22;53959;53.626;11.410;2022-12-18T15:36:15;-4.30;99.90
5138;DHT22;53959;53.626;11.410;2022-12-18T15:38:43;-4.30;99.90
5138;DHT22;53959;53.626;11.410;2022-12-18T15:41:14;-4.40;99.90
5138;DHT22;53959;53.626;11.410;2022-12-18T15:43:40;-4.30;99.90
5138;DHT22;53959;53.626;11.410;2022-12-18T15:46:13;-4.30;99.90
5138;DHT22;53959;53.626;11.410;2022-12-18T15:48:41;-4.30;99.90
5138;DHT22;53959;53.626;11.410;2022-12-18T15:53:46;-4.30;99.90
5138;DHT22;53959;53.626;11.410;2022-12-18T15:56:13;-4.40;99.90
5138;DHT22;53959;53.626;11.410;2022-12-18T15:58:58;-4.40;99.90
5138;DHT22;53959;53.626;11.410;2022-12-18T16:01:27;-4.40;99.90
5138;DHT22;53959;53.626;11.410;2022-12-18T16:03:53;-4.40;99.90
5138;DHT22;53959;53.626;11.410;2022-12-18T16:06:19;-4.40;99.90
5138;DHT22;53959;53.626;11.410;2022-12-18T16:08:45;-4.40;99.90
5138;DHT22;53959;53.626;11.410;2022-12-18T16:14:15;-4.40;99.90
5138;DHT22;53959;53.626;11.410;2022-12-18T16:16:41;-4.40;99.90
5138;DHT22;53959;53.626;11.410;2022-12-18T16:19:07;-4.40;99.90
5138;DHT22;53959;53.626;11.410;2022-12-18T16:21:32;-4.40;99.90
5138;DHT22;53959;53.626;11.410;2022-12-18T16:23:58;-4.40;99.90
5138;DHT22;53959;53.626;11.410;2022-12-18T16:26:23;-4.40;99.90
5138;DHT22;53959;53.626;11.410;2022-12-18T16:28:49;-4.50;99.90
5138;DHT22;53959;53.626;11.410;2022-12-18T16:31:14;-4.50;99.90
5138;DHT22;53959;53.626;11.410;2022-12-18T16:33:40;-4.40;99.90
5138;DHT22;53959;53.626;11.410;2022-12-18T16:36:06;-4.40;99.90
5138;DHT22;53959;53.626;11.410;2022-12-18T16:38:33;-4.40;99.90
5138;DHT22;53959;53.626;11.410;2022-12-18T16:40:58;-4.40;99.90
5138;DHT22;53959;53.626;11.410;2022-12-18T16:43:42;-4.20;99.90
5138;DHT22;53959;53.626;11.410;2022-12-18T16:46:08;-4.30;99.90
5138;DHT22;53959;53.626;11.410;2022-12-18T16:48:34;-4.30;99.90
5138;DHT22;53959;53.626;11.410;2022-12-18T16:51:01;-4.30;99.90
5138;DHT22;53959;53.626;11.410;2022-12-18T16:53:32;-4.20;99.90
5138;DHT22;53959;53.626;11.410;2022-12-18T16:55:57;-4.30;99.90
5138;DHT22;53959;53.626;11.410;2022-12-18T16:58:23;-4.20;99.90
5138;DHT22;53959;53.626;11.410;2022-12-18T17:00:48;-4.20;99.90
5138;DHT22;53959;53.626;11.410;2022-12-18T17:03:14;-4.30;99.90
5138;DHT22;53959;53.626;11.410;2022-12-18T17:05:39;-4.30;99.90
5138;DHT22;53959;53.626;11.410;2022-12-18T17:08:05;-4.20;99.90
5138;DHT22;53959;53.626;11.410;2022-12-18T17:10:33;-4.30;99.90
5138;DHT22;53959;53.626;11.410;2022-12-18T17:12:59;-4.40;99.90
5138;DHT22;53959;53.626;11.410;2022-12-18T17:15:25;-4.40;99.90
5138;DHT22;53959;53.626;11.410;2022-12-18T17:17:50;-4.40;99.90
5138;DHT22;53959;53.626;11.410;2022-12-18T17:20:16;-4.50;99.90
5138;DHT22;53959;53.626;11.410;2022-12-18T17:22:42;-4.50;99.90
5138;DHT22;53959;53.626;11.410;2022-12-18T17:25:07;-4.40;99.90
5138;DHT22;53959;53.626;11.410;2022-12-18T17:27:33;-4.40;99.90
5138;DHT22;53959;53.626;11.410;2022-12-18T17:29:58;-4.40;99.90
5138;DHT22;53959;53.626;11.410;2022-12-18T17:32:24;-4.50;99.90
5138;DHT22;53959;53.626;11.410;2022-12-18T17:34:49;-4.40;99.90
5138;DHT22;53959;53.626;11.410;2022-12-18T17:37:15;-4.40;99.90
5138;DHT22;53959;53.626;11.410;2022-12-18T17:39:41;-4.50;99.90
5138;DHT22;53959;53.626;11.410;2022-12-18T17:42:06;-4.40;99.90
5138;DHT22;53959;53.626;11.410;2022-12-18T17:44:35;-4.40;99.90
5138;DHT22;53959;53.626;11.410;2022-12-18T17:47:01;-4.40;99.90
5138;DHT22;53959;53.626;11.410;2022-12-18T17:49:26;-4.40;99.90
5138;DHT22;53959;53.626;11.410;2022-12-18T17:51:52;-4.40;99.90
5138;DHT22;53959;53.626;11.410;2022-12-18T17:54:18;-4.40;99.90
5138;DHT22;53959;53.626;11.410;2022-12-18T17:56:44;-4.30;99.90
5138;DHT22;53959;53.626;11.410;2022-12-18T17:59:09;-4.40;99.90